Time;durP1;ratioP1;P1;durP2;ratioP2;P2;SDS_P1;SDS_P2;PMS_P1;PMS_P2;Temp;Humidity;BMP_temperature;BMP_pressure;BME280_temperature;BME280_humidity;BME280_pressure;Samples;Min_cycle;Max_cycle;Signal;HPM_P1;HPM_P2
2021/03/24 00:01:59;;;;;;;10.18;5.65;;;23.10;31.20;;;;;;6106261;28;82085;-66
2021/03/24 00:04:59;;;;;;;9.50;5.15;;;23.10;31.80;;;;;;6091291;28;80684;-66
2021/03/24 00:08:00;;;;;;;9.48;5.85;;;23.10;31.30;;;;;;6104934;28;81123;-66
2021/03/24 00:11:01;;;;;;;8.77;5.93;;;23.10;31.30;;;;;;6106226;28;82623;-66
2021/03/24 00:14:01;;;;;;;10.00;5.82;;;23.10;31.30;;;;;;6105058;28;80838;-66
2021/03/24 00:17:02;;;;;;;10.40;6.93;;;23.00;31.40;;;;;;6097157;28;85098;-66
2021/03/24 00:20:02;;;;;;;10.45;6.03;;;23.10;31.10;;;;;;6106363;28;80445;-66
2021/03/24 00:23:03;;;;;;;10.55;5.80;;;23.10;31.80;;;;;;6104571;28;80699;-66
2021/03/24 00:26:04;;;;;;;10.40;6.00;;;23.10;31.20;;;;;;6097668;28;82377;-66
2021/03/24 00:29:04;;;;;;;10.15;6.55;;;23.10;31.50;;;;;;6098671;28;80979;-67
2021/03/24 00:32:05;;;;;;;8.93;5.57;;;23.10;31.70;;;;;;6101537;28;80741;-67
2021/03/24 00:35:06;;;;;;;10.95;6.22;;;23.10;31.40;;;;;;6098668;28;81721;-67
2021/03/24 00:38:06;;;;;;;7.55;5.53;;;23.00;31.70;;;;;;6102837;28;81697;-66
2021/03/24 00:41:07;;;;;;;13.13;6.57;;;23.00;31.10;;;;;;6103214;28;80729;-66
2021/03/24 00:44:07;;;;;;;8.95;5.78;;;23.00;31.10;;;;;;6083779;28;81062;-66
2021/03/24 00:47:08;;;;;;;10.05;5.70;;;23.10;31.70;;;;;;6104462;28;82149;-66
2021/03/24 00:50:08;;;;;;;10.20;5.72;;;23.10;31.20;;;;;;6104069;28;80794;-66
2021/03/24 00:53:09;;;;;;;7.85;5.60;;;23.10;31.60;;;;;;6104708;28;81061;-66
2021/03/24 00:56:09;;;;;;;9.55;5.35;;;23.10;31.80;;;;;;6101614;28;80484;-66
2021/03/24 00:59:10;;;;;;;10.35;5.68;;;23.00;31.10;;;;;;6097609;28;80393;-67
2021/03/24 01:02:11;;;;;;;9.85;6.32;;;23.00;31.30;;;;;;6099096;28;80341;-66
2021/03/24 01:05:11;;;;;;;10.93;6.05;;;23.00;31.70;;;;;;6103961;28;82508;-66
2021/03/24 01:08:12;;;;;;;9.23;5.63;;;23.10;31.70;;;;;;6102695;28;80516;-66
2021/03/24 01:11:12;;;;;;;10.00;5.88;;;23.00;31.80;;;;;;6086113;28;80860;-66
2021/03/24 01:14:13;;;;;;;8.98;5.80;;;23.10;31.80;;;;;;6103140;28;80493;-65
2021/03/24 01:17:13;;;;;;;9.70;5.72;;;23.00;31.70;;;;;;6085788;28;87945;-66
2021/03/24 01:20:14;;;;;;;7.32;5.57;;;23.00;31.50;;;;;;6081304;28;81058;-66
2021/03/24 01:23:15;;;;;;;8.57;5.40;;;23.00;31.90;;;;;;6100010;28;80941;-65
2021/03/24 01:26:16;;;;;;;9.00;5.40;;;23.00;31.90;;;;;;6104167;28;81667;-66
2021/03/24 01:29:17;;;;;;;11.55;5.55;;;23.00;32.10;;;;;;6107514;28;80678;-66
2021/03/24 01:32:17;;;;;;;7.47;5.15;;;23.00;31.70;;;;;;6109260;28;80819;-66
2021/03/24 01:35:18;;;;;;;9.27;5.75;;;23.00;31.90;;;;;;6109845;28;80499;-67
2021/03/24 01:38:18;;;;;;;7.55;5.07;;;23.00;31.70;;;;;;6104664;28;80277;-66
2021/03/24 01:41:19;;;;;;;9.52;4.97;;;23.00;31.80;;;;;;6110756;28;82636;-66
2021/03/24 01:44:19;;;;;;;8.20;5.18;;;23.00;31.70;;;;;;6108084;28;82078;-66
2021/03/24 01:47:20;;;;;;;7.70;4.90;;;22.90;31.70;;;;;;6106991;28;80697;-67
2021/03/24 01:50:20;;;;;;;8.35;5.00;;;22.90;32.10;;;;;;6103777;28;81526;-67
2021/03/24 01:53:21;;;;;;;7.18;5.22;;;23.00;31.50;;;;;;6108122;28;80815;-66
2021/03/24 01:56:22;;;;;;;8.02;4.88;;;23.00;31.90;;;;;;6089217;28;81798;-67
2021/03/24 01:59:22;;;;;;;6.95;4.47;;;23.00;31.80;;;;;;6105450;28;80914;-68
2021/03/24 02:02:23;;;;;;;8.32;4.90;;;23.00;31.70;;;;;;6106387;28;81663;-67
2021/03/24 02:05:28;;;;;;;6.47;4.57;;;22.90;31.70;;;;;;6107039;28;80991;-67
2021/03/24 02:08:28;;;;;;;6.38;4.75;;;22.90;31.90;;;;;;6106639;28;83803;-67
2021/03/24 02:11:29;;;;;;;8.45;5.15;;;22.90;31.60;;;;;;6088352;28;80817;-67
2021/03/24 02:14:29;;;;;;;8.05;5.13;;;22.90;31.50;;;;;;6108567;28;81768;-66
2021/03/24 02:17:30;;;;;;;7.15;4.65;;;22.90;31.20;;;;;;6094657;28;80634;-65
2021/03/24 02:20:30;;;;;;;6.93;4.93;;;22.90;31.60;;;;;;6105844;28;83567;-67
2021/03/24 02:23:31;;;;;;;9.05;4.75;;;22.90;31.30;;;;;;6106407;28;81040;-66
2021/03/24 02:26:32;;;;;;;6.70;4.70;;;22.90;31.60;;;;;;6106416;28;80697;-67
2021/03/24 02:29:32;;;;;;;6.25;4.15;;;22.90;31.90;;;;;;6102227;28;80722;-66
2021/03/24 02:32:33;;;;;;;6.80;4.40;;;22.90;31.50;;;;;;6106471;28;80697;-67
2021/03/24 02:35:33;;;;;;;7.22;4.93;;;22.90;31.40;;;;;;6106274;28;83107;-66
2021/03/24 02:38:34;;;;;;;7.30;5.03;;;22.90;31.40;;;;;;6108253;28;80635;-66
2021/03/24 02:41:34;;;;;;;8.98;4.70;;;22.90;31.60;;;;;;6107485;28;82323;-66
2021/03/24 02:44:35;;;;;;;7.63;4.95;;;22.90;31.30;;;;;;6102612;28;80807;-66
2021/03/24 02:47:35;;;;;;;6.88;4.40;;;22.90;31.00;;;;;;6105288;28;80926;-66
2021/03/24 02:50:36;;;;;;;7.15;4.30;;;22.90;31.30;;;;;;6104437;28;80559;-65
2021/03/24 02:53:38;;;;;;;8.77;4.72;;;22.90;31.50;;;;;;6105538;28;80651;-65
2021/03/24 02:56:39;;;;;;;6.82;4.43;;;22.90;31.40;;;;;;6103470;28;81509;-65
2021/03/24 02:59:39;;;;;;;7.63;4.82;;;22.90;31.20;;;;;;6104559;28;80898;-65
2021/03/24 03:02:40;;;;;;;8.27;4.63;;;22.90;31.00;;;;;;6105496;28;80738;-65
2021/03/24 03:05:41;;;;;;;6.25;4.40;;;22.90;31.10;;;;;;6105769;28;80710;-65
2021/03/24 03:08:41;;;;;;;6.03;4.00;;;22.90;31.30;;;;;;6104760;28;80703;-65
2021/03/24 03:11:42;;;;;;;5.97;4.18;;;22.90;32.00;;;;;;6100933;28;80573;-65
2021/03/24 03:14:42;;;;;;;7.53;3.90;;;22.90;30.90;;;;;;6106266;28;80459;-65
2021/03/24 03:17:43;;;;;;;7.28;4.75;;;22.90;31.50;;;;;;6103799;28;80766;-65
2021/03/24 03:20:43;;;;;;;6.72;4.47;;;22.90;31.10;;;;;;6099763;28;80764;-66
2021/03/24 03:23:44;;;;;;;7.45;4.82;;;22.80;30.60;;;;;;6103153;28;80786;-65
2021/03/24 03:26:44;;;;;;;6.63;3.95;;;22.80;31.10;;;;;;6100675;28;81008;-65
2021/03/24 03:29:45;;;;;;;7.65;4.10;;;22.80;31.20;;;;;;6104668;28;80289;-64
2021/03/24 03:32:45;;;;;;;6.38;4.25;;;22.80;31.10;;;;;;6105066;28;80593;-65
2021/03/24 03:35:46;;;;;;;7.05;4.25;;;22.80;31.00;;;;;;6105908;28;80438;-65
2021/03/24 03:38:46;;;;;;;5.72;3.72;;;22.80;30.70;;;;;;6103744;28;82330;-65
2021/03/24 03:41:47;;;;;;;6.45;3.83;;;22.80;30.60;;;;;;6104015;28;80580;-65
2021/03/24 03:44:48;;;;;;;5.53;3.78;;;22.80;31.00;;;;;;6097715;28;80529;-66
2021/03/24 03:47:48;;;;;;;8.48;4.28;;;22.90;30.80;;;;;;6087603;28;80731;-65
2021/03/24 03:50:49;;;;;;;6.15;3.78;;;22.80;31.20;;;;;;6109885;28;80869;-65
2021/03/24 03:53:49;;;;;;;6.43;3.80;;;22.80;30.90;;;;;;6101875;28;81312;-64
2021/03/24 03:56:50;;;;;;;6.55;3.53;;;22.80;30.80;;;;;;6097683;28;83188;-64
2021/03/24 03:59:50;;;;;;;5.40;3.40;;;22.80;31.00;;;;;;6103358;28;81373;-66
2021/03/24 04:02:51;;;;;;;7.55;3.97;;;22.80;30.80;;;;;;6096394;28;80300;-65
2021/03/24 04:05:52;;;;;;;5.53;3.65;;;22.80;30.70;;;;;;6096747;28;81185;-64
2021/03/24 04:08:52;;;;;;;7.07;4.05;;;22.80;31.10;;;;;;6079685;28;80742;-64
2021/03/24 04:11:53;;;;;;;5.55;3.72;;;22.80;30.90;;;;;;6103671;28;81053;-64
2021/03/24 04:14:53;;;;;;;6.55;3.75;;;22.80;31.00;;;;;;6087261;28;80434;-64
2021/03/24 04:17:54;;;;;;;4.65;3.40;;;22.80;31.20;;;;;;6106402;28;80650;-65
2021/03/24 04:20:55;;;;;;;6.30;3.42;;;22.90;30.40;;;;;;6104516;28;80866;-65
2021/03/24 04:23:55;;;;;;;6.72;4.15;;;22.90;29.90;;;;;;6102580;28;80582;-65
2021/03/24 04:26:56;;;;;;;6.88;3.88;;;22.80;29.90;;;;;;6104332;28;80828;-65
2021/03/24 04:29:56;;;;;;;7.38;4.22;;;22.90;29.70;;;;;;6107621;28;80505;-65
2021/03/24 04:32:57;;;;;;;6.28;4.30;;;22.90;29.80;;;;;;6103918;28;81484;-65
2021/03/24 04:35:57;;;;;;;5.32;3.85;;;22.90;29.70;;;;;;6109211;28;80498;-65
2021/03/24 04:38:58;;;;;;;8.07;4.07;;;22.90;29.60;;;;;;6092211;28;80959;-66
2021/03/24 04:41:59;;;;;;;8.75;4.07;;;23.00;29.70;;;;;;6101979;28;80730;-67
2021/03/24 04:44:59;;;;;;;7.40;4.60;;;23.00;29.70;;;;;;6107942;28;80820;-66
2021/03/24 04:48:00;;;;;;;8.00;4.18;;;23.00;29.70;;;;;;6103191;28;81364;-65
2021/03/24 04:51:00;;;;;;;6.15;4.03;;;23.00;29.80;;;;;;6104470;28;80785;-66
2021/03/24 04:54:01;;;;;;;6.90;4.38;;;23.10;29.90;;;;;;6096819;28;80613;-65
2021/03/24 04:57:02;;;;;;;7.13;4.05;;;23.00;29.90;;;;;;6101275;28;83401;-66
2021/03/24 05:00:02;;;;;;;7.85;4.45;;;23.00;30.00;;;;;;6105325;28;81495;-65
2021/03/24 05:03:03;;;;;;;5.15;3.80;;;23.10;30.00;;;;;;6107981;28;80721;-66
2021/03/24 05:06:03;;;;;;;6.55;4.10;;;23.10;30.00;;;;;;6097520;28;83568;-64
2021/03/24 05:09:04;;;;;;;6.82;3.88;;;23.10;30.00;;;;;;6107286;28;82660;-62
2021/03/24 05:12:04;;;;;;;6.85;3.92;;;23.10;30.00;;;;;;6089045;28;83184;-63
2021/03/24 05:15:05;;;;;;;8.02;4.90;;;23.10;30.00;;;;;;6109720;28;80752;-67
2021/03/24 05:18:07;;;;;;;6.47;3.97;;;23.20;30.00;;;;;;6102647;28;81660;-66
2021/03/24 05:21:08;;;;;;;7.43;4.43;;;23.20;30.00;;;;;;6103565;28;81448;-64
2021/03/24 05:24:08;;;;;;;6.97;3.97;;;23.20;30.30;;;;;;6104921;28;81609;-65
2021/03/24 05:27:09;;;;;;;6.72;3.60;;;23.20;30.20;;;;;;6086320;28;81524;-65
2021/03/24 05:30:10;;;;;;;6.43;3.85;;;23.20;30.80;;;;;;6107664;28;81603;-67
2021/03/24 05:33:10;;;;;;;6.55;3.97;;;23.20;30.70;;;;;;6108479;28;80739;-66
2021/03/24 05:36:11;;;;;;;8.18;4.15;;;23.20;31.20;;;;;;6108577;28;81418;-67
2021/03/24 05:39:11;;;;;;;6.78;3.78;;;23.20;31.40;;;;;;6107474;28;82471;-66
2021/03/24 05:42:12;;;;;;;6.22;3.90;;;23.20;31.20;;;;;;6105767;28;81869;-67
2021/03/24 05:45:13;;;;;;;10.30;4.85;;;23.30;32.50;;;;;;6109074;28;80646;-68
2021/03/24 05:48:13;;;;;;;8.40;4.10;;;23.30;31.70;;;;;;6108186;28;80506;-67
2021/03/24 05:51:14;;;;;;;6.95;3.95;;;23.30;31.50;;;;;;6107840;28;81729;-68
2021/03/24 05:54:14;;;;;;;10.70;4.25;;;23.30;31.30;;;;;;6109341;28;80571;-68
2021/03/24 05:57:15;;;;;;;9.43;4.55;;;23.30;31.40;;;;;;6107784;28;80500;-68
2021/03/24 06:00:16;;;;;;;7.60;3.92;;;23.30;31.10;;;;;;6080058;28;82111;-67
2021/03/24 06:03:16;;;;;;;8.65;5.50;;;23.30;31.40;;;;;;6107185;28;81484;-66
2021/03/24 06:06:17;;;;;;;9.05;5.07;;;23.30;31.80;;;;;;6091659;28;81670;-67
2021/03/24 06:09:17;;;;;;;9.20;4.80;;;23.30;32.00;;;;;;6103923;28;82191;-67
2021/03/24 06:12:18;;;;;;;12.50;5.20;;;23.30;32.40;;;;;;6102308;28;80615;-64
2021/03/24 06:15:18;;;;;;;8.13;5.40;;;23.30;32.70;;;;;;6108037;28;80942;-67
2021/03/24 06:18:19;;;;;;;12.52;5.80;;;23.30;33.20;;;;;;6096986;28;82010;-66
2021/03/24 06:21:20;;;;;;;8.43;5.72;;;23.30;33.50;;;;;;6107776;28;80406;-66
2021/03/24 06:24:20;;;;;;;8.73;5.32;;;23.40;33.70;;;;;;6107079;28;80775;-66
2021/03/24 06:27:21;;;;;;;10.50;5.75;;;23.40;33.70;;;;;;6103696;28;80933;-64
2021/03/24 06:30:21;;;;;;;9.63;5.22;;;23.40;34.10;;;;;;6102835;28;80731;-66
2021/03/24 06:33:22;;;;;;;11.40;5.65;;;23.30;34.30;;;;;;6107839;28;82785;-66
2021/03/24 06:36:22;;;;;;;10.95;6.03;;;23.30;34.10;;;;;;6087204;28;81257;-68
2021/03/24 06:39:23;;;;;;;8.55;5.72;;;23.30;34.60;;;;;;6103326;28;80956;-66
2021/03/24 06:42:24;;;;;;;12.27;5.30;;;23.40;34.10;;;;;;6107011;28;81904;-66
2021/03/24 06:45:25;;;;;;;12.68;5.30;;;23.40;34.00;;;;;;6105347;28;80854;-66
2021/03/24 06:48:25;;;;;;;16.25;5.68;;;23.40;34.30;;;;;;6105236;28;80357;-67
2021/03/24 06:51:26;;;;;;;9.07;5.50;;;23.30;34.40;;;;;;6100828;28;81061;-67
2021/03/24 06:54:26;;;;;;;10.05;5.30;;;23.40;34.50;;;;;;6106002;28;81021;-66
2021/03/24 06:57:27;;;;;;;8.07;4.97;;;23.40;33.90;;;;;;6106112;28;80818;-65
2021/03/24 07:00:27;;;;;;;8.65;5.22;;;23.40;33.60;;;;;;6102168;28;81183;-65
2021/03/24 07:03:28;;;;;;;12.05;5.30;;;23.40;33.20;;;;;;6101544;28;81351;-65
2021/03/24 07:06:28;;;;;;;10.00;5.30;;;23.40;33.20;;;;;;6103337;28;80854;-65
2021/03/24 07:09:29;;;;;;;6.97;4.68;;;23.30;32.50;;;;;;6102191;28;80657;-64
2021/03/24 07:12:30;;;;;;;9.27;5.45;;;23.30;32.50;;;;;;6105227;28;80640;-66
2021/03/24 07:15:30;;;;;;;9.35;5.65;;;23.30;33.10;;;;;;6103450;28;81048;-64
2021/03/24 07:18:31;;;;;;;10.93;5.50;;;23.30;32.70;;;;;;6108039;28;81054;-65
2021/03/24 07:21:31;;;;;;;7.20;4.38;;;23.30;32.40;;;;;;6105503;28;81197;-64
2021/03/24 07:24:32;;;;;;;9.48;5.20;;;23.20;32.20;;;;;;6105099;28;86953;-66
2021/03/24 07:27:33;;;;;;;6.63;4.90;;;23.20;33.00;;;;;;6101608;28;81691;-68
2021/03/24 07:30:33;;;;;;;10.18;5.35;;;23.20;32.30;;;;;;6107391;28;80674;-64
2021/03/24 07:33:34;;;;;;;10.18;5.45;;;23.20;32.60;;;;;;6103917;28;81108;-64
2021/03/24 07:36:35;;;;;;;11.15;4.97;;;23.20;33.40;;;;;;6102218;28;81338;-66
2021/03/24 07:39:36;;;;;;;12.10;6.45;;;23.20;33.10;;;;;;6111813;28;81587;-66
2021/03/24 07:42:36;;;;;;;9.65;6.13;;;23.20;33.80;;;;;;6078286;28;80932;-65
2021/03/24 07:45:37;;;;;;;12.15;6.18;;;23.20;33.10;;;;;;6100451;28;82438;-65
2021/03/24 07:48:37;;;;;;;7.72;5.38;;;23.20;33.20;;;;;;6081944;28;81937;-65
2021/03/24 07:51:38;;;;;;;9.93;5.57;;;23.20;33.60;;;;;;6095999;28;80731;-68
2021/03/24 07:54:38;;;;;;;14.38;7.00;;;23.20;34.10;;;;;;6102800;28;81135;-68
2021/03/24 07:57:39;;;;;;;11.65;5.72;;;23.20;33.20;;;;;;6106533;28;81098;-70
2021/03/24 08:00:40;;;;;;;8.80;5.90;;;23.10;32.70;;;;;;6078107;28;82288;-68
2021/03/24 08:03:40;;;;;;;10.52;5.53;;;23.20;32.60;;;;;;6103833;28;80727;-68
2021/03/24 08:06:41;;;;;;;6.40;4.93;;;23.20;32.90;;;;;;6100671;28;80501;-66
2021/03/24 08:09:41;;;;;;;18.27;7.55;;;23.20;33.10;;;;;;6100970;28;81056;-68
2021/03/24 08:12:42;;;;;;;257.58;79.47;;;23.20;32.30;;;;;;6063344;28;81387;-69
2021/03/24 08:15:44;;;;;;;999.20;400.48;;;23.20;32.40;;;;;;6105305;28;82983;-68
2021/03/24 08:18:44;;;;;;;936.47;374.38;;;23.20;32.50;;;;;;6076253;28;86191;-66
2021/03/24 08:21:45;;;;;;;685.58;251.93;;;23.20;32.50;;;;;;6090756;28;86765;-66
2021/03/24 08:24:46;;;;;;;644.83;234.75;;;23.20;32.20;;;;;;6078145;28;89356;-67
2021/03/24 08:27:47;;;;;;;622.55;221.77;;;23.20;32.80;;;;;;6090738;28;88748;-68
2021/03/24 08:30:47;;;;;;;547.47;187.23;;;23.20;33.20;;;;;;6097807;28;85721;-67
2021/03/24 08:33:48;;;;;;;452.27;145.57;;;23.20;32.70;;;;;;6094239;28;85550;-66
2021/03/24 08:36:48;;;;;;;375.50;126.00;;;23.20;33.20;;;;;;6096922;28;89133;-65
2021/03/24 08:39:49;;;;;;;354.58;115.43;;;23.20;33.40;;;;;;6095455;28;86569;-67
2021/03/24 08:42:49;;;;;;;330.60;110.07;;;23.20;33.00;;;;;;6097132;28;85758;-68
2021/03/24 08:45:50;;;;;;;302.70;100.35;;;23.20;32.70;;;;;;6078654;28;88679;-66
2021/03/24 08:48:50;;;;;;;276.00;93.60;;;23.20;32.70;;;;;;6080166;28;87281;-66
2021/03/24 08:51:51;;;;;;;253.55;86.25;;;23.20;32.70;;;;;;6078449;28;84021;-67
2021/03/24 08:54:52;;;;;;;228.77;82.55;;;23.20;32.70;;;;;;6100783;28;83026;-68
2021/03/24 08:57:52;;;;;;;214.65;78.53;;;23.20;33.90;;;;;;6101810;28;83034;-70
2021/03/24 09:00:53;;;;;;;210.45;73.65;;;23.10;32.80;;;;;;6100946;28;83702;-67
2021/03/24 09:03:53;;;;;;;194.60;67.82;;;23.10;32.80;;;;;;6078100;28;85899;-69
2021/03/24 09:06:54;;;;;;;180.07;61.72;;;23.10;33.10;;;;;;6069477;28;84168;-69
2021/03/24 09:09:55;;;;;;;183.23;58.15;;;23.10;32.90;;;;;;6101584;28;83026;-67
2021/03/24 09:12:55;;;;;;;151.27;54.95;;;23.20;32.80;;;;;;6101744;28;83293;-67
2021/03/24 09:15:56;;;;;;;131.00;51.42;;;23.20;32.90;;;;;;6100841;28;83187;-68
2021/03/24 09:18:56;;;;;;;123.93;44.72;;;23.20;32.70;;;;;;6077940;28;84559;-68
2021/03/24 09:21:57;;;;;;;124.72;41.67;;;23.20;33.00;;;;;;6101422;28;83153;-68
2021/03/24 09:24:57;;;;;;;106.00;41.58;;;23.20;33.20;;;;;;6101612;28;83408;-67
2021/03/24 09:27:58;;;;;;;102.95;36.85;;;23.20;33.50;;;;;;6089067;28;84294;-68
2021/03/24 09:30:58;;;;;;;100.15;38.13;;;23.30;33.50;;;;;;6094174;28;93669;-68
2021/03/24 09:33:59;;;;;;;97.18;34.20;;;23.30;33.50;;;;;;6101531;28;83623;-68
2021/03/24 09:37:00;;;;;;;93.57;34.50;;;23.30;33.60;;;;;;6098783;28;83815;-67
2021/03/24 09:40:01;;;;;;;100.60;32.05;;;23.30;33.50;;;;;;6099570;28;83203;-68
2021/03/24 09:43:01;;;;;;;78.00;29.95;;;23.40;33.30;;;;;;6108015;28;83338;-67
2021/03/24 09:46:02;;;;;;;75.82;28.35;;;23.30;33.20;;;;;;6100360;28;83436;-69
2021/03/24 09:49:02;;;;;;;65.88;26.17;;;23.40;33.00;;;;;;6084189;28;84620;-67
2021/03/24 09:52:03;;;;;;;67.80;25.48;;;23.40;32.90;;;;;;6104013;28;84124;-67
2021/03/24 09:55:03;;;;;;;66.32;25.73;;;23.40;32.90;;;;;;6078113;28;83469;-67
2021/03/24 09:58:04;;;;;;;67.93;23.67;;;23.40;32.80;;;;;;6084919;28;85247;-67
2021/03/24 10:01:05;;;;;;;56.75;21.38;;;23.40;32.90;;;;;;6097606;28;83472;-68
2021/03/24 10:04:05;;;;;;;57.75;21.10;;;23.40;33.00;;;;;;6097939;28;82985;-67
2021/03/24 10:07:06;;;;;;;56.83;21.38;;;23.40;33.00;;;;;;6103702;28;84261;-69
2021/03/24 10:10:06;;;;;;;47.90;19.92;;;23.40;33.20;;;;;;6104678;28;84277;-68
2021/03/24 10:13:07;;;;;;;52.55;18.77;;;23.40;33.20;;;;;;6104990;28;84056;-69
2021/03/24 10:16:07;;;;;;;48.40;19.17;;;23.50;33.60;;;;;;6106954;28;83516;-67
2021/03/24 10:19:08;;;;;;;49.03;17.50;;;23.50;34.00;;;;;;6103495;28;84219;-68
2021/03/24 10:22:09;;;;;;;42.70;16.48;;;23.50;34.10;;;;;;6103556;28;83121;-67
2021/03/24 10:25:10;;;;;;;43.55;15.82;;;23.50;34.10;;;;;;6088278;28;84175;-67
2021/03/24 10:28:11;;;;;;;42.90;14.55;;;23.50;34.80;;;;;;6097383;28;83880;-66
2021/03/24 10:31:13;;;;;;;42.72;16.25;;;23.50;35.00;;;;;;6098017;28;82821;-67
2021/03/24 10:34:13;;;;;;;40.20;16.30;;;23.50;34.50;;;;;;6096529;28;83652;-66
2021/03/24 10:37:14;;;;;;;34.08;14.52;;;23.50;34.10;;;;;;6070078;28;83402;-65
2021/03/24 10:40:14;;;;;;;40.97;14.27;;;23.50;33.90;;;;;;6089223;28;84063;-66
2021/03/24 10:43:15;;;;;;;28.70;12.00;;;23.50;33.80;;;;;;6078158;28;83511;-66
2021/03/24 10:46:15;;;;;;;29.08;13.20;;;23.50;33.50;;;;;;6080486;28;83244;-65
2021/03/24 10:49:16;;;;;;;28.65;12.38;;;23.50;33.40;;;;;;6080901;28;85563;-67
2021/03/24 10:52:16;;;;;;;24.67;11.15;;;23.40;33.30;;;;;;6100538;28;83666;-66
2021/03/24 10:55:17;;;;;;;26.35;10.93;;;23.40;33.10;;;;;;6105758;28;83087;-66
2021/03/24 10:58:18;;;;;;;23.73;10.40;;;23.40;33.10;;;;;;6077995;28;83659;-65
2021/03/24 11:01:18;;;;;;;27.33;11.23;;;23.40;33.00;;;;;;6089807;28;84758;-65
2021/03/24 11:04:19;;;;;;;27.15;10.10;;;23.40;32.70;;;;;;6103768;28;84105;-65
2021/03/24 11:07:19;;;;;;;20.58;9.88;;;23.40;32.70;;;;;;6104255;28;83725;-67
2021/03/24 11:10:20;;;;;;;16.92;9.38;;;23.40;32.60;;;;;;6106331;28;82918;-66
2021/03/24 11:13:21;;;;;;;20.88;8.98;;;23.50;32.80;;;;;;6104015;28;81552;-68
2021/03/24 11:16:24;;;;;;;19.30;8.70;;;23.50;32.90;;;;;;6100196;28;80670;-65
2021/03/24 11:19:25;;;;;;;20.10;7.70;;;23.40;32.70;;;;;;6107910;28;80843;-66
2021/03/24 11:22:25;;;;;;;17.73;8.05;;;23.40;32.70;;;;;;6098057;28;80570;-66
2021/03/24 11:25:28;;;;;;;16.77;8.02;;;23.40;32.90;;;;;;6104201;28;81437;-65
2021/03/24 11:28:29;;;;;;;19.85;8.20;;;23.40;32.70;;;;;;6104958;28;81352;-65
2021/03/24 11:31:29;;;;;;;15.95;8.32;;;23.40;32.80;;;;;;6104462;28;81461;-65
2021/03/24 11:34:30;;;;;;;14.90;7.65;;;23.40;32.50;;;;;;6103414;28;80424;-66
2021/03/24 11:37:30;;;;;;;16.88;7.60;;;23.30;32.60;;;;;;6106903;28;80176;-66
2021/03/24 11:40:31;;;;;;;15.95;7.43;;;23.40;32.70;;;;;;6106591;28;80314;-66
2021/03/24 11:43:32;;;;;;;17.65;7.40;;;23.30;32.80;;;;;;6107439;28;81059;-66
2021/03/24 11:46:35;;;;;;;20.02;7.90;;;23.30;33.30;;;;;;6106428;28;81227;-68
2021/03/24 11:49:36;;;;;;;17.80;8.23;;;23.30;33.20;;;;;;6102088;28;81131;-66
2021/03/24 11:52:36;;;;;;;18.23;7.75;;;23.30;33.00;;;;;;6094716;28;80915;-65
2021/03/24 11:55:37;;;;;;;15.63;8.25;;;23.40;32.90;;;;;;6105173;28;82036;-65
2021/03/24 11:58:37;;;;;;;16.65;7.72;;;23.30;32.90;;;;;;6083062;28;82101;-62
2021/03/24 12:01:38;;;;;;;16.52;6.68;;;23.30;32.90;;;;;;6107396;28;81004;-64
2021/03/24 12:04:39;;;;;;;15.90;7.40;;;23.30;33.10;;;;;;6105046;28;80648;-63
2021/03/24 12:07:39;;;;;;;15.50;7.22;;;23.30;33.50;;;;;;6102411;28;81111;-63
2021/03/24 12:10:41;;;;;;;14.50;7.43;;;23.30;33.30;;;;;;6088376;28;80685;-64
2021/03/24 12:13:41;;;;;;;11.48;6.57;;;23.30;33.10;;;;;;6105437;28;80748;-64
2021/03/24 12:16:42;;;;;;;14.57;7.10;;;23.30;33.20;;;;;;6084469;28;80479;-63
2021/03/24 12:19:42;;;;;;;13.38;7.30;;;23.30;33.50;;;;;;6105069;28;81482;-62
2021/03/24 12:22:43;;;;;;;17.48;7.30;;;23.30;33.20;;;;;;6107091;28;80794;-65
2021/03/24 12:25:44;;;;;;;12.23;6.75;;;23.30;33.20;;;;;;6103929;28;81684;-66
2021/03/24 12:28:44;;;;;;;16.75;7.50;;;23.30;33.00;;;;;;6104831;28;81867;-67
2021/03/24 12:31:45;;;;;;;12.70;5.90;;;23.30;32.90;;;;;;6093175;28;83602;-67
2021/03/24 12:34:45;;;;;;;15.02;7.50;;;23.30;32.70;;;;;;6096162;28;81267;-65
2021/03/24 12:37:46;;;;;;;16.17;6.63;;;23.20;32.70;;;;;;6093356;28;83184;-67
2021/03/24 12:40:46;;;;;;;13.10;6.65;;;23.20;32.90;;;;;;6104639;28;81052;-65
2021/03/24 12:43:49;;;;;;;12.63;6.50;;;23.20;33.10;;;;;;6103616;28;81391;-65
2021/03/24 12:46:59;;;;;;;11.07;6.60;;;23.20;33.00;;;;;;6106278;28;81122;-65
2021/03/24 12:50:03;;;;;;;10.88;5.90;;;23.20;33.10;;;;;;6084992;28;81968;-66
2021/03/24 12:53:06;;;;;;;12.32;7.07;;;23.20;32.80;;;;;;6101468;28;80864;-66
2021/03/24 12:56:07;;;;;;;13.57;6.90;;;23.20;33.30;;;;;;6086456;28;83397;-66
2021/03/24 12:59:08;;;;;;;11.00;6.30;;;23.20;33.10;;;;;;6101349;28;80751;-65
2021/03/24 13:02:11;;;;;;;12.00;6.63;;;23.20;33.10;;;;;;6100480;28;80788;-67
2021/03/24 13:05:25;;;;;;;;;;;;;;;;;;;;;
2021/03/24 13:08:32;;;;;;;10.88;6.32;;;23.20;32.80;;;;;;6100033;28;82114;-66
2021/03/24 13:11:35;;;;;;;12.88;6.70;;;23.20;33.30;;;;;;6088726;28;83162;-65
2021/03/24 13:14:37;;;;;;;10.95;6.30;;;23.20;32.70;;;;;;6103305;28;81187;-65
2021/03/24 13:17:38;;;;;;;11.52;6.38;;;23.20;32.80;;;;;;6099303;28;80761;-65
2021/03/24 13:20:39;;;;;;;15.80;7.20;;;23.20;31.90;;;;;;6086212;28;80549;-66
2021/03/24 13:23:41;;;;;;;13.30;6.97;;;23.20;32.00;;;;;;6106510;28;80422;-63
2021/03/24 13:26:41;;;;;;;13.85;6.85;;;23.20;32.20;;;;;;6107211;28;81341;-63
2021/03/24 13:29:45;;;;;;;10.60;6.47;;;23.20;32.10;;;;;;6096992;28;80465;-63
2021/03/24 13:32:46;;;;;;;10.45;6.57;;;23.20;32.10;;;;;;6106085;28;80835;-62
2021/03/24 13:35:46;;;;;;;10.75;6.25;;;23.20;32.20;;;;;;6108741;28;80597;-64
2021/03/24 13:38:47;;;;;;;17.60;6.85;;;23.30;34.00;;;;;;6106965;28;81582;-65
2021/03/24 13:41:48;;;;;;;9.73;6.20;;;23.30;33.00;;;;;;6107879;28;80629;-64
2021/03/24 13:44:49;;;;;;;12.00;6.80;;;23.30;33.00;;;;;;6090835;28;81820;-63
2021/03/24 13:47:52;;;;;;;8.52;6.05;;;23.30;33.00;;;;;;6105441;28;84094;-65
2021/03/24 13:50:53;;;;;;;12.20;6.57;;;23.30;33.00;;;;;;6106193;28;81200;-64
2021/03/24 13:53:53;;;;;;;8.98;5.75;;;23.30;33.00;;;;;;6087664;28;82515;-64
2021/03/24 13:56:54;;;;;;;10.85;6.60;;;23.40;33.10;;;;;;6106393;28;80891;-64
2021/03/24 13:59:54;;;;;;;8.93;5.13;;;23.40;32.90;;;;;;6104960;28;81491;-64
2021/03/24 14:02:55;;;;;;;12.73;6.75;;;23.40;32.80;;;;;;6099481;28;81274;-67
2021/03/24 14:05:55;;;;;;;11.52;6.35;;;23.40;33.00;;;;;;6100459;28;80944;-64
2021/03/24 14:08:56;;;;;;;13.10;6.45;;;23.40;33.00;;;;;;6084691;28;81413;-64
2021/03/24 14:11:56;;;;;;;10.40;6.35;;;23.40;33.00;;;;;;6103627;28;80983;-63
2021/03/24 14:14:58;;;;;;;11.65;5.80;;;23.40;32.90;;;;;;6105759;28;80654;-62
2021/03/24 14:17:59;;;;;;;10.93;6.35;;;23.40;32.90;;;;;;6102554;28;81150;-63
2021/03/24 14:20:59;;;;;;;9.85;5.70;;;23.50;32.90;;;;;;6102075;28;87377;-64
2021/03/24 14:24:00;;;;;;;11.25;6.40;;;23.50;32.90;;;;;;6104789;28;80308;-64
2021/03/24 14:27:01;;;;;;;10.13;6.03;;;23.50;32.80;;;;;;6086906;28;81652;-63
2021/03/24 14:30:01;;;;;;;12.13;6.93;;;23.50;32.80;;;;;;6107224;28;80546;-64
2021/03/24 14:33:04;;;;;;;9.48;6.00;;;23.50;32.70;;;;;;6083952;28;81325;-64
2021/03/24 14:36:05;;;;;;;8.30;5.88;;;23.50;32.80;;;;;;6099916;28;80609;-65
2021/03/24 14:39:06;;;;;;;8.80;5.78;;;23.50;32.80;;;;;;6106130;28;80640;-64
2021/03/24 14:42:06;;;;;;;12.23;5.45;;;23.60;32.90;;;;;;6104661;28;80852;-64
2021/03/24 14:45:07;;;;;;;10.40;6.30;;;23.50;32.90;;;;;;6085534;28;80807;-65
2021/03/24 14:48:07;;;;;;;10.65;6.82;;;23.50;32.80;;;;;;6102052;28;80944;-66
2021/03/24 14:51:08;;;;;;;14.15;6.55;;;23.50;32.90;;;;;;6106486;28;81934;-70
2021/03/24 14:54:08;;;;;;;11.68;6.20;;;23.50;32.90;;;;;;6099451;28;80421;-67
2021/03/24 14:57:09;;;;;;;11.32;6.05;;;23.50;33.10;;;;;;6099562;28;81227;-66
2021/03/24 15:00:10;;;;;;;13.18;6.30;;;23.50;33.00;;;;;;6105959;28;80920;-65
2021/03/24 15:03:10;;;;;;;8.77;5.97;;;23.50;33.10;;;;;;6102507;28;81729;-66
2021/03/24 15:06:11;;;;;;;12.55;5.78;;;23.50;33.80;;;;;;6107209;28;80906;-65
2021/03/24 15:09:11;;;;;;;9.50;5.60;;;23.50;33.60;;;;;;6102562;28;80839;-66
2021/03/24 15:12:12;;;;;;;10.32;5.95;;;23.50;33.90;;;;;;6100949;28;80404;-65
2021/03/24 15:15:12;;;;;;;10.13;6.63;;;23.50;33.90;;;;;;6107034;28;81099;-66
2021/03/24 15:18:13;;;;;;;8.82;5.50;;;23.50;35.30;;;;;;6103965;28;81245;-64
2021/03/24 15:21:13;;;;;;;10.70;5.95;;;23.50;34.40;;;;;;6100914;28;80514;-64
2021/03/24 15:24:14;;;;;;;9.88;5.88;;;23.50;33.80;;;;;;6104791;28;81008;-65
2021/03/24 15:27:15;;;;;;;9.00;6.05;;;23.40;34.10;;;;;;6103636;28;80497;-66
2021/03/24 15:30:15;;;;;;;10.38;6.43;;;23.50;34.30;;;;;;6104293;28;82694;-65